Turin, Georgia
Current Conditions -  °F | °C
As of 7:53 PM on Monday 26 Jan 2015 (Local Time) from KFFC Reporting Station
Clear Clear  
Wind Chill: 31°   Ceiling: Unl
Heat Index: 36°   Visibility: 10mi
Dew Point: 28°   Wind: 6mph
Humidity: 73%   Direction: 310°NW
Pressure: 29.95"   Gusts: NA
Location:  33.33°N, 84.64°W
Report Text: KFFC 270053Z AUTO 31005KT 10SM CLR 02/M02 A2995 RMK AO2 SLP148 T00221022
Loading
Personal Weather Stations






























Interactive Weather Map New forecast layout! Learn more

10-Day Weather Forecast

Advertisements
Track Severe Weather on mobile